sensor_id;sensor_type;location;lat;lon;timestamp;temperature;humidity
15450;DHT22;7826;49.784;9.934;2022-12-29T00:00:06;7.70;99.90
15450;DHT22;7826;49.784;9.934;2022-12-29T00:02:33;7.70;99.90
15450;DHT22;7826;49.784;9.934;2022-12-29T00:05:00;7.70;99.90
15450;DHT22;7826;49.784;9.934;2022-12-29T00:07:26;7.70;99.90
15450;DHT22;7826;49.784;9.934;2022-12-29T00:09:53;7.80;99.90
15450;DHT22;7826;49.784;9.934;2022-12-29T00:12:19;7.80;99.90
15450;DHT22;7826;49.784;9.934;2022-12-29T00:14:46;7.80;99.90
15450;DHT22;7826;49.784;9.934;2022-12-29T00:17:31;7.90;99.90
15450;DHT22;7826;49.784;9.934;2022-12-29T00:19:58;7.90;99.90
15450;DHT22;7826;49.784;9.934;2022-12-29T00:22:43;7.90;99.90
15450;DHT22;7826;49.784;9.934;2022-12-29T00:25:28;7.90;99.90
15450;DHT22;7826;49.784;9.934;2022-12-29T00:28:13;7.90;99.90
15450;DHT22;7826;49.784;9.934;2022-12-29T00:31:00;7.80;99.90
15450;DHT22;7826;49.784;9.934;2022-12-29T00:33:45;7.80;99.90
15450;DHT22;7826;49.784;9.934;2022-12-29T00:36:39;7.80;99.90
15450;DHT22;7826;49.784;9.934;2022-12-29T00:39:09;7.80;99.90
15450;DHT22;7826;49.784;9.934;2022-12-29T00:41:55;8.00;99.90
15450;DHT22;7826;49.784;9.934;2022-12-29T00:44:42;7.80;99.90
15450;DHT22;7826;49.784;9.934;2022-12-29T00:47:09;7.90;99.90
15450;DHT22;7826;49.784;9.934;2022-12-29T00:49:42;7.90;99.90
15450;DHT22;7826;49.784;9.934;2022-12-29T00:52:11;7.90;99.90
15450;DHT22;7826;49.784;9.934;2022-12-29T00:54:40;7.90;99.90
15450;DHT22;7826;49.784;9.934;2022-12-29T00:57:08;7.90;99.90
15450;DHT22;7826;49.784;9.934;2022-12-29T00:59:36;7.90;99.90
15450;DHT22;7826;49.784;9.934;2022-12-29T01:02:03;8.00;99.90
15450;DHT22;7826;49.784;9.934;2022-12-29T01:04:29;7.90;99.90
15450;DHT22;7826;49.784;9.934;2022-12-29T01:06:56;7.90;99.90
15450;DHT22;7826;49.784;9.934;2022-12-29T01:09:22;8.00;99.90
15450;DHT22;7826;49.784;9.934;2022-12-29T01:12:09;8.00;99.90
15450;DHT22;7826;49.784;9.934;2022-12-29T01:14:36;8.00;99.90
15450;DHT22;7826;49.784;9.934;2022-12-29T01:17:03;8.00;99.90
15450;DHT22;7826;49.784;9.934;2022-12-29T01:19:30;8.00;99.90
15450;DHT22;7826;49.784;9.934;2022-12-29T01:21:57;8.10;99.90
15450;DHT22;7826;49.784;9.934;2022-12-29T01:24:23;8.10;99.90
15450;DHT22;7826;49.784;9.934;2022-12-29T01:26:52;7.80;99.90
15450;DHT22;7826;49.784;9.934;2022-12-29T01:29:20;8.10;99.90
15450;DHT22;7826;49.784;9.934;2022-12-29T01:31:47;8.20;99.90
15450;DHT22;7826;49.784;9.934;2022-12-29T01:34:13;8.10;99.90
15450;DHT22;7826;49.784;9.934;2022-12-29T01:36:40;8.10;99.90
15450;DHT22;7826;49.784;9.934;2022-12-29T01:39:06;8.10;99.90
15450;DHT22;7826;49.784;9.934;2022-12-29T01:41:33;8.10;99.90
15450;DHT22;7826;49.784;9.934;2022-12-29T01:44:00;8.10;99.90
15450;DHT22;7826;49.784;9.934;2022-12-29T01:46:42;8.20;99.90
15450;DHT22;7826;49.784;9.934;2022-12-29T01:49:19;8.20;99.90
15450;DHT22;7826;49.784;9.934;2022-12-29T01:51:53;8.30;99.90
15450;DHT22;7826;49.784;9.934;2022-12-29T01:54:36;8.30;99.90
15450;DHT22;7826;49.784;9.934;2022-12-29T01:57:08;8.40;99.90
15450;DHT22;7826;49.784;9.934;2022-12-29T01:59:40;8.50;99.90
15450;DHT22;7826;49.784;9.934;2022-12-29T02:02:09;8.60;99.90
15450;DHT22;7826;49.784;9.934;2022-12-29T02:04:40;8.60;99.90
15450;DHT22;7826;49.784;9.934;2022-12-29T02:07:19;8.70;99.90
15450;DHT22;7826;49.784;9.934;2022-12-29T02:09:50;8.80;99.90
15450;DHT22;7826;49.784;9.934;2022-12-29T02:12:18;9.00;99.90
15450;DHT22;7826;49.784;9.934;2022-12-29T02:14:47;9.10;99.90
15450;DHT22;7826;49.784;9.934;2022-12-29T02:34:22;9.50;99.90
15450;DHT22;7826;49.784;9.934;2022-12-29T02:37:58;9.50;99.90
15450;DHT22;7826;49.784;9.934;2022-12-29T02:40:24;9.50;99.90
15450;DHT22;7826;49.784;9.934;2022-12-29T02:49:53;9.40;99.90
15450;DHT22;7826;49.784;9.934;2022-12-29T02:52:51;9.40;99.90
15450;DHT22;7826;49.784;9.934;2022-12-29T02:55:19;9.30;1.00
15450;DHT22;7826;49.784;9.934;2022-12-29T02:57:46;9.30;1.00
15450;DHT22;7826;49.784;9.934;2022-12-29T03:00:14;9.30;99.90
15450;DHT22;7826;49.784;9.934;2022-12-29T03:11:29;9.20;1.00
15450;DHT22;7826;49.784;9.934;2022-12-29T03:14:28;9.10;52.80
15450;DHT22;7826;49.784;9.934;2022-12-29T03:17:40;9.10;1.00
15450;DHT22;7826;49.784;9.934;2022-12-29T03:20:12;9.10;99.90
15450;DHT22;7826;49.784;9.934;2022-12-29T03:22:43;9.10;1.00
15450;DHT22;7826;49.784;9.934;2022-12-29T03:25:44;9.10;23.40
15450;DHT22;7826;49.784;9.934;2022-12-29T03:28:21;9.00;99.90
15450;DHT22;7826;49.784;9.934;2022-12-29T03:30:48;9.00;99.90
15450;DHT22;7826;49.784;9.934;2022-12-29T03:33:22;9.00;99.90
15450;DHT22;7826;49.784;9.934;2022-12-29T03:35:51;9.00;1.00
15450;DHT22;7826;49.784;9.934;2022-12-29T03:38:33;9.00;1.00
15450;DHT22;7826;49.784;9.934;2022-12-29T03:41:04;9.00;1.00
15450;DHT22;7826;49.784;9.934;2022-12-29T03:43:32;9.10;1.00
15450;DHT22;7826;49.784;9.934;2022-12-29T03:45:58;9.10;1.00
15450;DHT22;7826;49.784;9.934;2022-12-29T03:48:25;9.10;1.00
15450;DHT22;7826;49.784;9.934;2022-12-29T03:50:51;9.10;1.00
15450;DHT22;7826;49.784;9.934;2022-12-29T03:53:18;9.10;1.00
15450;DHT22;7826;49.784;9.934;2022-12-29T03:55:44;9.10;1.00
15450;DHT22;7826;49.784;9.934;2022-12-29T03:58:11;9.10;1.00
15450;DHT22;7826;49.784;9.934;2022-12-29T04:00:37;9.20;1.00
15450;DHT22;7826;49.784;9.934;2022-12-29T04:03:04;9.20;1.00
15450;DHT22;7826;49.784;9.934;2022-12-29T04:05:31;9.20;1.00
15450;DHT22;7826;49.784;9.934;2022-12-29T04:07:57;9.30;1.00
15450;DHT22;7826;49.784;9.934;2022-12-29T04:10:23;9.30;1.00
15450;DHT22;7826;49.784;9.934;2022-12-29T04:12:50;9.40;1.00
15450;DHT22;7826;49.784;9.934;2022-12-29T04:15:16;9.40;1.00
15450;DHT22;7826;49.784;9.934;2022-12-29T04:17:42;9.40;1.00
15450;DHT22;7826;49.784;9.934;2022-12-29T04:20:09;9.50;1.00
15450;DHT22;7826;49.784;9.934;2022-12-29T04:23:03;9.50;1.00
15450;DHT22;7826;49.784;9.934;2022-12-29T04:25:31;9.50;1.00
15450;DHT22;7826;49.784;9.934;2022-12-29T04:27:58;9.50;1.00
15450;DHT22;7826;49.784;9.934;2022-12-29T04:30:24;9.50;1.00
15450;DHT22;7826;49.784;9.934;2022-12-29T04:32:52;9.50;1.00
15450;DHT22;7826;49.784;9.934;2022-12-29T04:35:18;9.60;1.00
15450;DHT22;7826;49.784;9.934;2022-12-29T04:37:45;9.60;1.00
15450;DHT22;7826;49.784;9.934;2022-12-29T04:40:11;9.60;99.90
15450;DHT22;7826;49.784;9.934;2022-12-29T04:42:56;9.70;99.90
15450;DHT22;7826;49.784;9.934;2022-12-29T04:45:22;9.70;99.90
15450;DHT22;7826;49.784;9.934;2022-12-29T04:47:49;9.70;99.90
15450;DHT22;7826;49.784;9.934;2022-12-29T04:50:15;9.70;70.70
15450;DHT22;7826;49.784;9.934;2022-12-29T04:52:42;9.70;1.00
15450;DHT22;7826;49.784;9.934;2022-12-29T04:55:08;9.70;1.00
15450;DHT22;7826;49.784;9.934;2022-12-29T04:57:35;9.60;1.00
15450;DHT22;7826;49.784;9.934;2022-12-29T05:00:02;9.60;1.00
15450;DHT22;7826;49.784;9.934;2022-12-29T05:02:29;9.60;1.00
15450;DHT22;7826;49.784;9.934;2022-12-29T05:04:55;9.60;1.00
15450;DHT22;7826;49.784;9.934;2022-12-29T05:07:22;9.60;1.00
15450;DHT22;7826;49.784;9.934;2022-12-29T05:09:48;9.60;1.00
15450;DHT22;7826;49.784;9.934;2022-12-29T05:12:15;9.60;1.00
15450;DHT22;7826;49.784;9.934;2022-12-29T05:14:41;9.60;1.00
15450;DHT22;7826;49.784;9.934;2022-12-29T05:17:08;9.50;99.90
15450;DHT22;7826;49.784;9.934;2022-12-29T05:19:34;9.50;99.90
15450;DHT22;7826;49.784;9.934;2022-12-29T05:22:01;9.50;99.90
15450;DHT22;7826;49.784;9.934;2022-12-29T05:24:27;9.50;21.30
15450;DHT22;7826;49.784;9.934;2022-12-29T05:26:54;9.50;1.00
15450;DHT22;7826;49.784;9.934;2022-12-29T05:29:20;9.50;1.00
15450;DHT22;7826;49.784;9.934;2022-12-29T05:31:47;9.50;1.00
15450;DHT22;7826;49.784;9.934;2022-12-29T05:34:13;9.50;99.90
15450;DHT22;7826;49.784;9.934;2022-12-29T05:36:40;9.50;99.90
15450;DHT22;7826;49.784;9.934;2022-12-29T05:39:07;9.50;99.90
15450;DHT22;7826;49.784;9.934;2022-12-29T05:41:36;9.50;99.90
15450;DHT22;7826;49.784;9.934;2022-12-29T05:44:04;9.40;1.00
15450;DHT22;7826;49.784;9.934;2022-12-29T05:46:30;9.50;1.00
15450;DHT22;7826;49.784;9.934;2022-12-29T05:48:57;9.50;1.00
15450;DHT22;7826;49.784;9.934;2022-12-29T05:51:23;9.50;1.00
15450;DHT22;7826;49.784;9.934;2022-12-29T05:53:50;9.50;99.90
15450;DHT22;7826;49.784;9.934;2022-12-29T05:56:17;9.50;99.90
15450;DHT22;7826;49.784;9.934;2022-12-29T05:58:43;9.50;99.90
15450;DHT22;7826;49.784;9.934;2022-12-29T06:01:10;9.50;99.90
15450;DHT22;7826;49.784;9.934;2022-12-29T06:03:36;9.50;99.90
15450;DHT22;7826;49.784;9.934;2022-12-29T06:06:03;9.50;99.90
15450;DHT22;7826;49.784;9.934;2022-12-29T06:08:30;9.50;99.90
15450;DHT22;7826;49.784;9.934;2022-12-29T06:10:56;9.50;99.90
15450;DHT22;7826;49.784;9.934;2022-12-29T06:13:23;9.50;99.90
15450;DHT22;7826;49.784;9.934;2022-12-29T06:15:50;9.60;99.90
15450;DHT22;7826;49.784;9.934;2022-12-29T06:18:17;9.60;99.90
15450;DHT22;7826;49.784;9.934;2022-12-29T06:20:43;9.60;99.90
15450;DHT22;7826;49.784;9.934;2022-12-29T06:23:10;9.60;99.90
15450;DHT22;7826;49.784;9.934;2022-12-29T06:25:39;9.60;99.90
15450;DHT22;7826;49.784;9.934;2022-12-29T06:28:06;9.60;99.90
15450;DHT22;7826;49.784;9.934;2022-12-29T06:30:33;9.60;99.90
15450;DHT22;7826;49.784;9.934;2022-12-29T06:33:00;9.60;99.90
15450;DHT22;7826;49.784;9.934;2022-12-29T06:35:26;9.70;99.90
15450;DHT22;7826;49.784;9.934;2022-12-29T06:37:53;9.80;99.90
15450;DHT22;7826;49.784;9.934;2022-12-29T06:40:20;9.80;99.90
15450;DHT22;7826;49.784;9.934;2022-12-29T06:42:50;9.90;99.90
15450;DHT22;7826;49.784;9.934;2022-12-29T06:45:17;10.00;99.90
15450;DHT22;7826;49.784;9.934;2022-12-29T06:47:44;10.00;99.90
15450;DHT22;7826;49.784;9.934;2022-12-29T06:50:11;10.10;99.90
15450;DHT22;7826;49.784;9.934;2022-12-29T06:52:37;10.10;99.90
15450;DHT22;7826;49.784;9.934;2022-12-29T06:55:04;10.20;99.90
15450;DHT22;7826;49.784;9.934;2022-12-29T06:57:31;10.20;99.90
15450;DHT22;7826;49.784;9.934;2022-12-29T06:59:57;10.30;99.90
15450;DHT22;7826;49.784;9.934;2022-12-29T07:02:24;10.30;99.90
15450;DHT22;7826;49.784;9.934;2022-12-29T07:04:53;10.30;99.90
15450;DHT22;7826;49.784;9.934;2022-12-29T07:07:20;10.40;99.90
15450;DHT22;7826;49.784;9.934;2022-12-29T07:09:46;10.40;99.90
15450;DHT22;7826;49.784;9.934;2022-12-29T07:12:13;10.40;99.90
15450;DHT22;7826;49.784;9.934;2022-12-29T07:14:39;10.50;99.90
15450;DHT22;7826;49.784;9.934;2022-12-29T07:17:08;10.50;99.90
15450;DHT22;7826;49.784;9.934;2022-12-29T07:19:38;10.50;99.90
15450;DHT22;7826;49.784;9.934;2022-12-29T07:22:04;10.50;99.90
15450;DHT22;7826;49.784;9.934;2022-12-29T07:24:31;10.60;99.90
15450;DHT22;7826;49.784;9.934;2022-12-29T07:26:57;10.60;99.90
15450;DHT22;7826;49.784;9.934;2022-12-29T07:29:24;10.60;99.90
15450;DHT22;7826;49.784;9.934;2022-12-29T07:31:50;10.50;99.90
15450;DHT22;7826;49.784;9.934;2022-12-29T07:34:16;10.50;99.90
15450;DHT22;7826;49.784;9.934;2022-12-29T07:36:43;10.50;99.90
15450;DHT22;7826;49.784;9.934;2022-12-29T07:39:09;10.50;99.90
15450;DHT22;7826;49.784;9.934;2022-12-29T07:41:37;10.40;99.90
15450;DHT22;7826;49.784;9.934;2022-12-29T07:44:04;10.40;99.90
15450;DHT22;7826;49.784;9.934;2022-12-29T07:46:30;10.40;99.90
15450;DHT22;7826;49.784;9.934;2022-12-29T07:48:58;10.40;99.90
15450;DHT22;7826;49.784;9.934;2022-12-29T07:51:25;10.40;99.90
15450;DHT22;7826;49.784;9.934;2022-12-29T07:53:51;10.40;99.90
15450;DHT22;7826;49.784;9.934;2022-12-29T07:56:17;10.40;99.90
15450;DHT22;7826;49.784;9.934;2022-12-29T07:58:44;10.40;99.90
15450;DHT22;7826;49.784;9.934;2022-12-29T08:01:10;10.30;99.90
15450;DHT22;7826;49.784;9.934;2022-12-29T08:03:37;10.30;99.90
15450;DHT22;7826;49.784;9.934;2022-12-29T08:06:04;10.30;99.90
15450;DHT22;7826;49.784;9.934;2022-12-29T08:08:31;10.40;99.90
15450;DHT22;7826;49.784;9.934;2022-12-29T08:10:57;10.50;99.90
15450;DHT22;7826;49.784;9.934;2022-12-29T08:13:24;10.40;99.90
15450;DHT22;7826;49.784;9.934;2022-12-29T08:15:51;10.40;99.90
15450;DHT22;7826;49.784;9.934;2022-12-29T08:18:17;10.50;99.90
15450;DHT22;7826;49.784;9.934;2022-12-29T08:20:44;10.50;99.90
15450;DHT22;7826;49.784;9.934;2022-12-29T08:23:10;10.50;99.90
15450;DHT22;7826;49.784;9.934;2022-12-29T08:25:37;10.50;99.90
15450;DHT22;7826;49.784;9.934;2022-12-29T08:28:04;10.60;99.90
15450;DHT22;7826;49.784;9.934;2022-12-29T08:30:30;10.60;99.90
15450;DHT22;7826;49.784;9.934;2022-12-29T08:32:57;10.60;99.90
15450;DHT22;7826;49.784;9.934;2022-12-29T08:35:24;10.60;99.90
15450;DHT22;7826;49.784;9.934;2022-12-29T08:37:50;10.60;99.90
15450;DHT22;7826;49.784;9.934;2022-12-29T08:40:17;10.70;99.90
15450;DHT22;7826;49.784;9.934;2022-12-29T08:42:44;10.60;99.90
15450;DHT22;7826;49.784;9.934;2022-12-29T08:45:11;10.60;99.90
15450;DHT22;7826;49.784;9.934;2022-12-29T08:47:37;10.70;99.90
15450;DHT22;7826;49.784;9.934;2022-12-29T08:50:04;10.70;99.90
15450;DHT22;7826;49.784;9.934;2022-12-29T08:52:31;10.80;99.90
15450;DHT22;7826;49.784;9.934;2022-12-29T08:54:58;10.90;99.90
15450;DHT22;7826;49.784;9.934;2022-12-29T08:57:25;11.00;99.90
15450;DHT22;7826;49.784;9.934;2022-12-29T08:59:51;11.00;99.90
15450;DHT22;7826;49.784;9.934;2022-12-29T09:02:18;11.00;99.90
15450;DHT22;7826;49.784;9.934;2022-12-29T09:04:45;11.00;99.90
15450;DHT22;7826;49.784;9.934;2022-12-29T09:07:12;11.10;99.90
15450;DHT22;7826;49.784;9.934;2022-12-29T09:09:38;11.20;99.90
15450;DHT22;7826;49.784;9.934;2022-12-29T09:12:06;11.30;99.90
15450;DHT22;7826;49.784;9.934;2022-12-29T09:14:33;11.40;99.90
15450;DHT22;7826;49.784;9.934;2022-12-29T09:16:59;11.40;99.90
15450;DHT22;7826;49.784;9.934;2022-12-29T09:19:44;11.50;99.90
15450;DHT22;7826;49.784;9.934;2022-12-29T09:22:11;11.50;99.90
15450;DHT22;7826;49.784;9.934;2022-12-29T09:24:38;11.60;99.90
15450;DHT22;7826;49.784;9.934;2022-12-29T09:27:04;11.70;99.90
15450;DHT22;7826;49.784;9.934;2022-12-29T09:29:33;11.80;99.90
15450;DHT22;7826;49.784;9.934;2022-12-29T09:32:01;11.90;99.90
15450;DHT22;7826;49.784;9.934;2022-12-29T09:34:42;12.10;99.90
15450;DHT22;7826;49.784;9.934;2022-12-29T09:37:09;12.20;99.90
15450;DHT22;7826;49.784;9.934;2022-12-29T09:39:35;12.30;99.90
15450;DHT22;7826;49.784;9.934;2022-12-29T09:42:37;12.40;99.90
15450;DHT22;7826;49.784;9.934;2022-12-29T09:45:27;12.40;99.90
15450;DHT22;7826;49.784;9.934;2022-12-29T09:47:55;12.50;99.90
15450;DHT22;7826;49.784;9.934;2022-12-29T09:50:32;12.50;99.90
15450;DHT22;7826;49.784;9.934;2022-12-29T09:55:47;12.80;99.90
15450;DHT22;7826;49.784;9.934;2022-12-29T09:59:15;12.50;99.90
15450;DHT22;7826;49.784;9.934;2022-12-29T10:01:32;12.50;99.90
15450;DHT22;7826;49.784;9.934;2022-12-29T10:04:00;12.50;99.90
15450;DHT22;7826;49.784;9.934;2022-12-29T10:09:25;12.60;99.90
15450;DHT22;7826;49.784;9.934;2022-12-29T10:20:36;12.90;99.90
15450;DHT22;7826;49.784;9.934;2022-12-29T10:25:55;13.10;99.90
15450;DHT22;7826;49.784;9.934;2022-12-29T10:28:35;13.20;99.90
15450;DHT22;7826;49.784;9.934;2022-12-29T10:31:17;13.30;99.90
15450;DHT22;7826;49.784;9.934;2022-12-29T10:33:46;13.40;99.90
15450;DHT22;7826;49.784;9.934;2022-12-29T10:36:27;13.50;99.90
15450;DHT22;7826;49.784;9.934;2022-12-29T10:39:12;13.60;99.90
15450;DHT22;7826;49.784;9.934;2022-12-29T10:41:46;13.50;99.90
15450;DHT22;7826;49.784;9.934;2022-12-29T10:44:17;13.60;99.90
15450;DHT22;7826;49.784;9.934;2022-12-29T10:46:54;13.60;99.90
15450;DHT22;7826;49.784;9.934;2022-12-29T10:49:21;13.70;99.90
15450;DHT22;7826;49.784;9.934;2022-12-29T10:51:51;13.70;99.90
15450;DHT22;7826;49.784;9.934;2022-12-29T10:54:49;13.70;99.90
15450;DHT22;7826;49.784;9.934;2022-12-29T10:57:35;13.80;99.90
15450;DHT22;7826;49.784;9.934;2022-12-29T11:00:16;13.80;99.90
15450;DHT22;7826;49.784;9.934;2022-12-29T11:06:13;13.70;99.90
15450;DHT22;7826;49.784;9.934;2022-12-29T11:08:37;13.80;99.90
15450;DHT22;7826;49.784;9.934;2022-12-29T11:11:08;13.90;99.90
15450;DHT22;7826;49.784;9.934;2022-12-29T11:13:56;13.80;99.90
15450;DHT22;7826;49.784;9.934;2022-12-29T11:16:33;13.90;99.90
15450;DHT22;7826;49.784;9.934;2022-12-29T11:19:01;13.70;99.90
15450;DHT22;7826;49.784;9.934;2022-12-29T11:21:38;13.70;99.90
15450;DHT22;7826;49.784;9.934;2022-12-29T11:24:28;13.80;99.90
15450;DHT22;7826;49.784;9.934;2022-12-29T11:27:13;13.80;99.90
15450;DHT22;7826;49.784;9.934;2022-12-29T11:29:42;13.80;99.90
15450;DHT22;7826;49.784;9.934;2022-12-29T11:32:21;13.80;99.90
15450;DHT22;7826;49.784;9.934;2022-12-29T11:34:49;13.80;99.90
15450;DHT22;7826;49.784;9.934;2022-12-29T11:37:39;13.80;99.90
15450;DHT22;7826;49.784;9.934;2022-12-29T11:40:18;13.70;99.90
15450;DHT22;7826;49.784;9.934;2022-12-29T11:42:52;13.70;99.90
15450;DHT22;7826;49.784;9.934;2022-12-29T11:47:51;13.40;99.90
15450;DHT22;7826;49.784;9.934;2022-12-29T11:50:28;13.60;99.90
15450;DHT22;7826;49.784;9.934;2022-12-29T11:53:17;13.50;99.90
15450;DHT22;7826;49.784;9.934;2022-12-29T11:56:01;13.50;99.90
15450;DHT22;7826;49.784;9.934;2022-12-29T11:58:34;13.50;99.90
15450;DHT22;7826;49.784;9.934;2022-12-29T12:04:12;13.40;99.90
15450;DHT22;7826;49.784;9.934;2022-12-29T12:06:47;13.40;99.90
15450;DHT22;7826;49.784;9.934;2022-12-29T12:09:32;13.40;99.90
15450;DHT22;7826;49.784;9.934;2022-12-29T12:12:02;13.50;99.90
15450;DHT22;7826;49.784;9.934;2022-12-29T12:14:35;13.50;99.90
15450;DHT22;7826;49.784;9.934;2022-12-29T12:17:10;13.60;99.90
15450;DHT22;7826;49.784;9.934;2022-12-29T12:19:43;13.70;99.90
15450;DHT22;7826;49.784;9.934;2022-12-29T12:28:00;13.80;99.90
15450;DHT22;7826;49.784;9.934;2022-12-29T12:30:40;13.80;99.90
15450;DHT22;7826;49.784;9.934;2022-12-29T12:33:24;13.70;99.90
15450;DHT22;7826;49.784;9.934;2022-12-29T12:39:06;13.60;99.90
15450;DHT22;7826;49.784;9.934;2022-12-29T13:03:47;13.90;99.90
15450;DHT22;7826;49.784;9.934;2022-12-29T13:09:30;13.70;99.90
15450;DHT22;7826;49.784;9.934;2022-12-29T13:12:22;13.70;99.90
15450;DHT22;7826;49.784;9.934;2022-12-29T13:17:48;13.60;99.90
15450;DHT22;7826;49.784;9.934;2022-12-29T13:22:58;13.50;99.90
15450;DHT22;7826;49.784;9.934;2022-12-29T13:25:43;13.40;99.90
15450;DHT22;7826;49.784;9.934;2022-12-29T13:28:25;13.30;99.90
15450;DHT22;7826;49.784;9.934;2022-12-29T13:31:04;13.20;99.90
15450;DHT22;7826;49.784;9.934;2022-12-29T13:33:51;13.10;99.90
15450;DHT22;7826;49.784;9.934;2022-12-29T13:36:27;13.00;99.90
15450;DHT22;7826;49.784;9.934;2022-12-29T13:41:50;12.90;99.90
15450;DHT22;7826;49.784;9.934;2022-12-29T13:44:39;12.90;99.90
15450;DHT22;7826;49.784;9.934;2022-12-29T13:49:42;12.80;99.90
15450;DHT22;7826;49.784;9.934;2022-12-29T13:52:28;12.70;99.90
15450;DHT22;7826;49.784;9.934;2022-12-29T13:55:22;12.70;99.90
15450;DHT22;7826;49.784;9.934;2022-12-29T13:58:03;12.60;99.90
15450;DHT22;7826;49.784;9.934;2022-12-29T14:03:51;12.50;99.90
15450;DHT22;7826;49.784;9.934;2022-12-29T14:06:26;12.40;99.90
15450;DHT22;7826;49.784;9.934;2022-12-29T14:09:02;12.30;99.90
15450;DHT22;7826;49.784;9.934;2022-12-29T14:11:39;12.30;99.90
15450;DHT22;7826;49.784;9.934;2022-12-29T14:14:20;12.20;99.90
15450;DHT22;7826;49.784;9.934;2022-12-29T14:16:48;12.20;99.90
15450;DHT22;7826;49.784;9.934;2022-12-29T14:19:26;12.20;99.90
15450;DHT22;7826;49.784;9.934;2022-12-29T14:21:59;12.20;99.90
15450;DHT22;7826;49.784;9.934;2022-12-29T14:34:53;11.90;99.90
15450;DHT22;7826;49.784;9.934;2022-12-29T14:37:36;11.90;99.90
15450;DHT22;7826;49.784;9.934;2022-12-29T14:40:16;11.80;99.90
15450;DHT22;7826;49.784;9.934;2022-12-29T14:42:47;11.80;99.90
15450;DHT22;7826;49.784;9.934;2022-12-29T14:47:43;11.50;99.90
15450;DHT22;7826;49.784;9.934;2022-12-29T14:52:52;11.70;99.90
15450;DHT22;7826;49.784;9.934;2022-12-29T14:58:32;11.70;99.90
15450;DHT22;7826;49.784;9.934;2022-12-29T15:01:03;11.60;99.90
15450;DHT22;7826;49.784;9.934;2022-12-29T15:03:32;11.60;99.90
15450;DHT22;7826;49.784;9.934;2022-12-29T15:06:10;11.50;99.90
15450;DHT22;7826;49.784;9.934;2022-12-29T15:11:19;11.50;99.90
15450;DHT22;7826;49.784;9.934;2022-12-29T15:13:46;11.40;99.90
15450;DHT22;7826;49.784;9.934;2022-12-29T15:18:48;11.20;99.90
15450;DHT22;7826;49.784;9.934;2022-12-29T15:21:15;11.00;99.90
15450;DHT22;7826;49.784;9.934;2022-12-29T15:23:44;10.90;99.90
15450;DHT22;7826;49.784;9.934;2022-12-29T15:26:11;10.70;99.90
15450;DHT22;7826;49.784;9.934;2022-12-29T15:28:41;10.60;99.90
15450;DHT22;7826;49.784;9.934;2022-12-29T15:31:23;10.50;99.90
15450;DHT22;7826;49.784;9.934;2022-12-29T15:33:54;10.40;99.90
15450;DHT22;7826;49.784;9.934;2022-12-29T15:36:26;10.30;99.90
15450;DHT22;7826;49.784;9.934;2022-12-29T15:38:53;10.20;99.90
15450;DHT22;7826;49.784;9.934;2022-12-29T15:41:32;10.10;99.90
15450;DHT22;7826;49.784;9.934;2022-12-29T15:44:28;10.00;99.90
15450;DHT22;7826;49.784;9.934;2022-12-29T15:46:56;9.90;99.90
15450;DHT22;7826;49.784;9.934;2022-12-29T15:49:23;9.90;1.00
15450;DHT22;7826;49.784;9.934;2022-12-29T15:51:50;9.80;1.00
15450;DHT22;7826;49.784;9.934;2022-12-29T15:54:19;9.60;1.00
15450;DHT22;7826;49.784;9.934;2022-12-29T15:56:46;9.50;99.90
15450;DHT22;7826;49.784;9.934;2022-12-29T15:59:33;9.30;1.00
15450;DHT22;7826;49.784;9.934;2022-12-29T16:02:01;9.10;99.90
15450;DHT22;7826;49.784;9.934;2022-12-29T16:04:32;8.90;1.00
15450;DHT22;7826;49.784;9.934;2022-12-29T16:07:04;8.80;99.90
15450;DHT22;7826;49.784;9.934;2022-12-29T16:09:44;8.60;1.00
15450;DHT22;7826;49.784;9.934;2022-12-29T16:12:17;8.50;1.00
15450;DHT22;7826;49.784;9.934;2022-12-29T16:14:48;8.60;1.00
15450;DHT22;7826;49.784;9.934;2022-12-29T16:17:16;8.40;1.00
15450;DHT22;7826;49.784;9.934;2022-12-29T16:20:01;8.40;1.00
15450;DHT22;7826;49.784;9.934;2022-12-29T16:22:36;8.30;1.00
15450;DHT22;7826;49.784;9.934;2022-12-29T16:27:47;8.30;1.00
15450;DHT22;7826;49.784;9.934;2022-12-29T16:30:33;8.30;1.00
15450;DHT22;7826;49.784;9.934;2022-12-29T16:33:03;8.30;1.00
15450;DHT22;7826;49.784;9.934;2022-12-29T16:35:39;8.30;1.00
15450;DHT22;7826;49.784;9.934;2022-12-29T16:40:49;8.30;1.00
15450;DHT22;7826;49.784;9.934;2022-12-29T16:43:27;8.30;1.00
15450;DHT22;7826;49.784;9.934;2022-12-29T16:46:19;8.20;1.00
15450;DHT22;7826;49.784;9.934;2022-12-29T16:48:52;8.20;1.00
15450;DHT22;7826;49.784;9.934;2022-12-29T16:51:33;8.20;1.00
15450;DHT22;7826;49.784;9.934;2022-12-29T16:54:01;8.10;1.00
15450;DHT22;7826;49.784;9.934;2022-12-29T16:56:31;8.00;1.00
15450;DHT22;7826;49.784;9.934;2022-12-29T16:59:05;8.00;1.00
15450;DHT22;7826;49.784;9.934;2022-12-29T17:01:37;8.00;1.00
15450;DHT22;7826;49.784;9.934;2022-12-29T17:04:07;7.90;1.00
15450;DHT22;7826;49.784;9.934;2022-12-29T17:06:35;7.90;1.00
15450;DHT22;7826;49.784;9.934;2022-12-29T17:09:16;7.90;1.00
15450;DHT22;7826;49.784;9.934;2022-12-29T17:11:43;7.80;1.00
15450;DHT22;7826;49.784;9.934;2022-12-29T17:16:56;7.80;1.00
15450;DHT22;7826;49.784;9.934;2022-12-29T17:19:49;7.80;1.00
15450;DHT22;7826;49.784;9.934;2022-12-29T17:22:22;7.70;1.00
15450;DHT22;7826;49.784;9.934;2022-12-29T17:24:52;7.70;1.00
15450;DHT22;7826;49.784;9.934;2022-12-29T17:27:27;7.90;1.00
15450;DHT22;7826;49.784;9.934;2022-12-29T17:29:57;7.70;1.00
15450;DHT22;7826;49.784;9.934;2022-12-29T17:32:25;7.70;1.00
15450;DHT22;7826;49.784;9.934;2022-12-29T17:34:51;7.70;1.00
15450;DHT22;7826;49.784;9.934;2022-12-29T17:39:50;7.70;1.00
15450;DHT22;7826;49.784;9.934;2022-12-29T17:42:18;7.70;1.00
15450;DHT22;7826;49.784;9.934;2022-12-29T17:44:45;7.70;1.00
15450;DHT22;7826;49.784;9.934;2022-12-29T17:47:12;7.70;1.00
15450;DHT22;7826;49.784;9.934;2022-12-29T17:49:41;7.70;1.00
15450;DHT22;7826;49.784;9.934;2022-12-29T17:52:12;7.70;2.40
15450;DHT22;7826;49.784;9.934;2022-12-29T17:54:49;7.80;3.70
15450;DHT22;7826;49.784;9.934;2022-12-29T17:57:18;7.50;4.50
15450;DHT22;7826;49.784;9.934;2022-12-29T17:59:45;7.50;5.50
15450;DHT22;7826;49.784;9.934;2022-12-29T18:02:25;7.60;6.60
15450;DHT22;7826;49.784;9.934;2022-12-29T18:04:52;7.60;8.10
15450;DHT22;7826;49.784;9.934;2022-12-29T18:07:19;7.50;9.20
15450;DHT22;7826;49.784;9.934;2022-12-29T18:09:46;7.50;10.00
15450;DHT22;7826;49.784;9.934;2022-12-29T18:12:39;7.50;10.80
15450;DHT22;7826;49.784;9.934;2022-12-29T18:17:44;7.50;12.70
15450;DHT22;7826;49.784;9.934;2022-12-29T18:20:10;7.50;13.80
15450;DHT22;7826;49.784;9.934;2022-12-29T18:22:36;7.50;15.30
15450;DHT22;7826;49.784;9.934;2022-12-29T18:25:27;7.60;16.50
15450;DHT22;7826;49.784;9.934;2022-12-29T18:27:56;7.50;18.10
15450;DHT22;7826;49.784;9.934;2022-12-29T18:30:23;7.50;19.20
15450;DHT22;7826;49.784;9.934;2022-12-29T18:32:50;7.70;20.10
15450;DHT22;7826;49.784;9.934;2022-12-29T18:35:28;7.50;20.70
15450;DHT22;7826;49.784;9.934;2022-12-29T18:37:55;7.50;22.00
15450;DHT22;7826;49.784;9.934;2022-12-29T18:40:22;7.50;22.80
15450;DHT22;7826;49.784;9.934;2022-12-29T18:42:49;7.60;23.60
15450;DHT22;7826;49.784;9.934;2022-12-29T18:45:19;7.50;24.20
15450;DHT22;7826;49.784;9.934;2022-12-29T18:47:46;7.70;25.00
15450;DHT22;7826;49.784;9.934;2022-12-29T18:50:13;7.60;25.80
15450;DHT22;7826;49.784;9.934;2022-12-29T18:52:40;7.60;26.30